Jersey — WDF7218 — position and weather

sailwx.info

Track history (hours):
 
Tides and Currents Weather Stations Pressure Air Temp Water Temp Dewpoint Dewpoint Depression Visibility Wind Speed Wind Dir Waves Ship Positions

Jersey

Owner: BillyBey Ferry Company, Weehawken, NJ. More information available from US FCC via Universal Licensing System and Coast Guard Vessel Documentation Center.

Last reported at 2017-Nov-19 09:00 UTC. Time now 2017-Nov-19 10:05 UTC.
Position N 40°46' W 074°01'.

Length 22 m.

Type: Passenger vessel. MMSI: 367482250.

Date/timePositionNaut miles runAvg speedWind from/ knotsBaromVisibWave heightAir tempDewpointWater temp
2017-Nov-19 09:00N 40°46' W 074°01'0 0.0
2017-Nov-19 08:30N 40°46' W 074°01'0 0.0
2017-Nov-18 00:53N 40°46' W 074°01'4 9.6
2017-Nov-18 00:30N 40°43' W 074°02'0 0.2
2017-Nov-18 00:01N 40°43' W 074°02'0 0.3
2017-Nov-17 23:30N 40°43' W 074°02'0 0.0
2017-Nov-17 23:01N 40°43' W 074°02'0 0.0
2017-Nov-17 22:30N 40°43' W 074°02'0 0.2
2017-Nov-17 22:00N 40°43' W 074°02'0 0.1
2017-Nov-17 21:30N 40°43' W 074°02'0 0.1
2017-Nov-17 21:00N 40°43' W 074°02'0 0.4
2017-Nov-17 20:30N 40°43' W 074°02'0 0.4
2017-Nov-17 20:00N 40°43' W 074°02'0 0.1
2017-Nov-17 19:30N 40°43' W 074°02'0 0.1
2017-Nov-17 19:00N 40°43' W 074°02'0 0.2
2017-Nov-17 18:30N 40°43' W 074°02'0 0.2
2017-Nov-17 18:00N 40°43' W 074°02'0 0.1
2017-Nov-17 17:30N 40°43' W 074°02'0 0.3
2017-Nov-17 17:01N 40°43' W 074°02'0 0.3
2017-Nov-17 16:30N 40°43' W 074°02'0 0.3
2017-Nov-17 16:00N 40°43' W 074°02'0 0.2
2017-Nov-17 15:30N 40°43' W 074°02'0 0.1
2017-Nov-17 15:00N 40°43' W 074°02'0 0.0
2017-Nov-17 14:30N 40°43' W 074°02'0 0.0
2017-Nov-17 14:00N 40°43' W 074°02'0 0.1
2017-Nov-17 13:30N 40°43' W 074°02'0 0.2
2017-Nov-17 13:00N 40°43' W 074°02'0 0.2
2017-Nov-17 12:30N 40°43' W 074°02'0 0.0
2017-Nov-17 12:00N 40°43' W 074°02'0 0.1
2017-Nov-17 11:30N 40°43' W 074°02'0 0.0
2017-Nov-17 11:00N 40°43' W 074°02'1 2.6
2017-Nov-17 10:30N 40°44' W 074°02'0 0.0
2017-Nov-17 04:14N 40°44' W 074°02'1 5.9
2017-Nov-17 04:01N 40°43' W 074°01'1 1.3
2017-Nov-17 03:30N 40°43' W 074°02'1 1.3
2017-Nov-17 03:00N 40°43' W 074°01'1 1.3
2017-Nov-17 02:30N 40°43' W 074°02'1 1.2
2017-Nov-17 02:00N 40°43' W 074°01'1 1.3
2017-Nov-17 01:30N 40°43' W 074°02'1 1.3
2017-Nov-17 01:00N 40°43' W 074°01'0 0.1
2017-Nov-17 00:30N 40°43' W 074°01'0 0.1
2017-Nov-17 00:00N 40°43' W 074°01'0 0.0
2017-Nov-16 23:30N 40°43' W 074°01'0 0.1
2017-Nov-16 23:01N 40°43' W 074°01'0 0.2
2017-Nov-16 22:31N 40°43' W 074°01'0 0.0
2017-Nov-16 22:01N 40°43' W 074°01'0 0.0
2017-Nov-16 21:30N 40°43' W 074°01'0 0.0
2017-Nov-16 21:00N 40°43' W 074°01'0 0.0
2017-Nov-16 20:30N 40°43' W 074°01'0 0.0
2017-Nov-16 20:00N 40°43' W 074°01'0 0.1
2017-Nov-16 19:30N 40°43' W 074°01'0 0.1
2017-Nov-16 19:01N 40°43' W 074°01'0 0.0
2017-Nov-16 18:30N 40°43' W 074°01'0 0.0
2017-Nov-16 18:00N 40°43' W 074°01'0 0.0
2017-Nov-16 17:31N 40°43' W 074°01'0 0.1
2017-Nov-16 17:00N 40°43' W 074°01'0 0.1
2017-Nov-16 16:30N 40°43' W 074°01'0 0.0
2017-Nov-16 16:00N 40°43' W 074°01'0 0.1
2017-Nov-16 15:30N 40°43' W 074°01'0 0.1
2017-Nov-16 15:00N 40°43' W 074°01'0 0.1
2017-Nov-16 14:30N 40°43' W 074°01'0 0.0
2017-Nov-16 14:00N 40°43' W 074°01'0 0.0
2017-Nov-16 13:30N 40°43' W 074°01'0 0.0
2017-Nov-16 13:00N 40°43' W 074°01'0 0.0
2017-Nov-16 12:30N 40°43' W 074°01'0 0.0
2017-Nov-16 12:00N 40°43' W 074°01'0 0.0
2017-Nov-16 11:30N 40°43' W 074°01'1 2.6
2017-Nov-16 11:00N 40°44' W 074°02'0 0.0
2017-Nov-16 01:31N 40°44' W 074°02'0 0.0
2017-Nov-16 01:31N 40°44' W 074°02'2 4.5
2017-Nov-16 01:00N 40°46' W 074°01'4 7.1
2017-Nov-16 00:30N 40°43' W 074°02'0 0.1
2017-Nov-16 00:00N 40°43' W 074°02'0 0.2
2017-Nov-15 23:30N 40°43' W 074°02'0 0.0
2017-Nov-15 23:00N 40°43' W 074°02'0 0.1
2017-Nov-15 22:30N 40°43' W 074°02'0 0.0
2017-Nov-15 22:00N 40°43' W 074°02'0 0.1
2017-Nov-15 21:30N 40°43' W 074°02'0 0.2
2017-Nov-15 21:01N 40°43' W 074°02'0 0.1
2017-Nov-15 20:30N 40°43' W 074°02'0 0.0
2017-Nov-15 20:00N 40°43' W 074°02'0 0.1
2017-Nov-15 19:30N 40°43' W 074°02'0 0.2
2017-Nov-15 19:00N 40°43' W 074°02'0 0.1
2017-Nov-15 18:30N 40°43' W 074°02'0 0.0
2017-Nov-15 18:00N 40°43' W 074°02'0 0.1
2017-Nov-15 17:30N 40°43' W 074°02'0 0.0
2017-Nov-15 17:00N 40°43' W 074°02'0 0.2
2017-Nov-15 16:30N 40°43' W 074°02'0 0.1
2017-Nov-15 16:01N 40°43' W 074°02'0 0.3
2017-Nov-15 15:31N 40°43' W 074°02'0 0.2
2017-Nov-15 15:00N 40°43' W 074°02'0 0.2
2017-Nov-15 14:31N 40°43' W 074°02'0 0.3
2017-Nov-15 14:00N 40°43' W 074°02'0 0.1
2017-Nov-15 13:30N 40°43' W 074°02'0 0.2
2017-Nov-15 13:00N 40°43' W 074°02'0 0.1
2017-Nov-15 12:30N 40°43' W 074°02'0 0.1
2017-Nov-15 12:00N 40°43' W 074°02'0 0.2
2017-Nov-15 11:31N 40°43' W 074°02'0 0.1
2017-Nov-15 11:01N 40°43' W 074°02'1 2.6
2017-Nov-15 10:30N 40°44' W 074°02'0 0.0
2017-Nov-15 04:13N 40°44' W 074°02'1 6.4
2017-Nov-15 04:01N 40°43' W 074°01'1 1.3
2017-Nov-15 03:31N 40°43' W 074°02'1 1.3
2017-Nov-15 03:01N 40°43' W 074°01'1 1.1
2017-Nov-15 02:30N 40°43' W 074°02'1 1.1
2017-Nov-15 02:00N 40°43' W 074°01'1 1.0
2017-Nov-15 01:30N 40°43' W 074°02'1 1.1
2017-Nov-15 01:01N 40°43' W 074°01'0 0.1
2017-Nov-15 00:31N 40°43' W 074°01'0 0.1
2017-Nov-15 00:00N 40°43' W 074°01'0 0.1
2017-Nov-14 23:30N 40°43' W 074°01'0 0.0
2017-Nov-14 23:00N 40°43' W 074°01'0 0.0
2017-Nov-14 22:30N 40°43' W 074°01'0 0.1
2017-Nov-14 22:00N 40°43' W 074°01'0 0.1
2017-Nov-14 21:30N 40°43' W 074°01'0 0.0
2017-Nov-14 21:00N 40°43' W 074°01'0 0.0
2017-Nov-14 20:30N 40°43' W 074°01'0 0.1
2017-Nov-14 20:00N 40°43' W 074°01'0 0.1
2017-Nov-14 19:30N 40°43' W 074°01'0 0.0
2017-Nov-14 19:00N 40°43' W 074°01'0 0.0
2017-Nov-14 18:30N 40°43' W 074°01'0 0.0
2017-Nov-14 18:00N 40°43' W 074°01'0 0.0
2017-Nov-14 17:30N 40°43' W 074°01'0 0.0
2017-Nov-14 17:00N 40°43' W 074°01'0 0.0
2017-Nov-14 16:30N 40°43' W 074°01'0 0.0
2017-Nov-14 16:00N 40°43' W 074°01'0 0.0
2017-Nov-14 15:30N 40°43' W 074°01'0 0.0
2017-Nov-14 15:00N 40°43' W 074°01'0 0.0
2017-Nov-14 14:30N 40°43' W 074°01'0 0.0
2017-Nov-14 14:00N 40°43' W 074°01'0 0.0
2017-Nov-14 13:30N 40°43' W 074°01'0 0.1
2017-Nov-14 13:00N 40°43' W 074°01'0 0.1
2017-Nov-14 12:30N 40°43' W 074°01'0 0.0
2017-Nov-14 12:00N 40°43' W 074°01'0 0.1
2017-Nov-14 11:30N 40°43' W 074°01'1 2.6
2017-Nov-14 11:01N 40°44' W 074°02'0 0.0
2017-Nov-14 01:26N 40°44' W 074°02'2 5.2
2017-Nov-14 01:00N 40°46' W 074°01'3 6.9
2017-Nov-14 00:31N 40°43' W 074°01'0 0.3
2017-Nov-14 00:00N 40°43' W 074°01'0 0.0
2017-Nov-13 23:30N 40°43' W 074°01'0 0.0
2017-Nov-13 23:00N 40°43' W 074°01'0 0.0
2017-Nov-13 22:30N 40°43' W 074°01'0 0.0
2017-Nov-13 22:00N 40°43' W 074°01'3 0.2
2017-Nov-13 01:57N 40°46' W 074°01'0 0.0
2017-Nov-11 02:24N 40°46' W 074°01'3 7.6
2017-Nov-11 02:01N 40°43' W 074°01'1 1.3
2017-Nov-11 01:31N 40°43' W 074°02'1 1.2
2017-Nov-11 01:01N 40°43' W 074°01'0 0.0
2017-Nov-11 00:30N 40°43' W 074°01'0 0.1
2017-Nov-11 00:00N 40°43' W 074°01'0 0.0
2017-Nov-10 23:30N 40°43' W 074°01'0 0.0
2017-Nov-10 23:00N 40°43' W 074°01'0 0.0
2017-Nov-10 22:30N 40°43' W 074°01'0 0.1
2017-Nov-10 22:00N 40°43' W 074°01'0 0.1
2017-Nov-10 21:30N 40°43' W 074°01'0 0.1
2017-Nov-10 21:00N 40°43' W 074°01'0 0.1
2017-Nov-10 20:30N 40°43' W 074°01'0 0.0
2017-Nov-10 20:00N 40°43' W 074°01'0 0.0
2017-Nov-10 19:31N 40°43' W 074°01'0 0.1
2017-Nov-10 19:00N 40°43' W 074°01'0 0.1
2017-Nov-10 18:30N 40°43' W 074°01'0 0.1
2017-Nov-10 18:00N 40°43' W 074°01'0 0.1
2017-Nov-10 17:30N 40°43' W 074°01'0 0.0
2017-Nov-10 17:00N 40°43' W 074°01'0 0.0
2017-Nov-10 16:30N 40°43' W 074°01'0 0.0
2017-Nov-10 16:00N 40°43' W 074°01'0 0.0
2017-Nov-10 15:30N 40°43' W 074°01'0 0.1
2017-Nov-10 15:00N 40°43' W 074°01'0 0.1
2017-Nov-10 14:30N 40°43' W 074°01'0 0.1
2017-Nov-10 14:00N 40°43' W 074°01'0 0.0
2017-Nov-10 13:30N 40°43' W 074°01'0 0.0
2017-Nov-10 13:00N 40°43' W 074°01'0 0.1
2017-Nov-10 12:30N 40°43' W 074°01'0 0.1
2017-Nov-10 12:00N 40°43' W 074°01'0 0.1
2017-Nov-10 11:30N 40°43' W 074°01'1 2.6
2017-Nov-10 11:00N 40°44' W 074°02'0 0.0
2017-Nov-10 01:25N 40°44' W 074°02'2 5.3
2017-Nov-10 01:00N 40°46' W 074°01'4 7.1
2017-Nov-10 00:30N 40°43' W 074°02'0 0.5
2017-Nov-10 00:00N 40°43' W 074°02'0 0.1
2017-Nov-09 23:31N 40°43' W 074°02'0 0.2
2017-Nov-09 23:01N 40°43' W 074°02'0 0.4
2017-Nov-09 22:30N 40°43' W 074°02'0 0.1
2017-Nov-09 22:01N 40°43' W 074°02'0 0.1
2017-Nov-09 21:30N 40°43' W 074°02'0 0.1
2017-Nov-09 21:00N 40°43' W 074°02'0 0.2
2017-Nov-09 20:30N 40°43' W 074°02'0 0.2
2017-Nov-09 20:00N 40°43' W 074°02'0 0.0
2017-Nov-09 19:30N 40°43' W 074°02'0 0.0
2017-Nov-09 19:00N 40°43' W 074°02'0 0.1
2017-Nov-09 18:30N 40°43' W 074°02'0 0.1
2017-Nov-09 18:00N 40°43' W 074°02'0 0.0
2017-Nov-09 17:30N 40°43' W 074°02'0 0.1
2017-Nov-09 17:00N 40°43' W 074°02'0 0.1
2017-Nov-09 16:30N 40°43' W 074°02'0 0.0
2017-Nov-09 16:00N 40°43' W 074°02'0 0.0
2017-Nov-09 15:30N 40°43' W 074°02'0 0.1
2017-Nov-09 15:00N 40°43' W 074°02'0 0.0
2017-Nov-09 14:30N 40°43' W 074°02'0 0.0
2017-Nov-09 14:00N 40°43' W 074°02'0 0.1
2017-Nov-09 13:31N 40°43' W 074°02'0 0.1
2017-Nov-09 13:00N 40°43' W 074°02'0 0.1
2017-Nov-09 12:30N 40°43' W 074°02'0 0.0
2017-Nov-09 12:01N 40°43' W 074°02'0 0.2
2017-Nov-09 11:30N 40°43' W 074°02'0 0.2
2017-Nov-09 11:00N 40°43' W 074°02'1 2.6
2017-Nov-09 10:30N 40°44' W 074°02'  
Track history (hours):
 
Tides and Currents Weather Stations Pressure Air Temp Water Temp Dewpoint Dewpoint Depression Visibility Wind Speed Wind Dir Waves Ship Positions

Jersey

Owner: BillyBey Ferry Company, Weehawken, NJ. More information available from US FCC via Universal Licensing System and Coast Guard Vessel Documentation Center.

Last reported at 2017-Nov-19 09:00 UTC. Time now 2017-Nov-19 10:05 UTC.
Position N 40°46' W 074°01'.

Length 22 m.

Type: Passenger vessel. MMSI: 367482250.

Date/timePositionNaut miles runAvg speedWind from/ knotsBaromVisibWave heightAir tempDewpointWater temp
2017-Nov-19 09:00N 40°46' W 074°01'0 0.0
2017-Nov-19 08:30N 40°46' W 074°01'0 0.0
2017-Nov-18 00:53N 40°46' W 074°01'4 9.6
2017-Nov-18 00:30N 40°43' W 074°02'0 0.2
2017-Nov-18 00:01N 40°43' W 074°02'0 0.3
2017-Nov-17 23:30N 40°43' W 074°02'0 0.0
2017-Nov-17 23:01N 40°43' W 074°02'0 0.0
2017-Nov-17 22:30N 40°43' W 074°02'0 0.2
2017-Nov-17 22:00N 40°43' W 074°02'0 0.1
2017-Nov-17 21:30N 40°43' W 074°02'0 0.1
2017-Nov-17 21:00N 40°43' W 074°02'0 0.4
2017-Nov-17 20:30N 40°43' W 074°02'0 0.4
2017-Nov-17 20:00N 40°43' W 074°02'0 0.1
2017-Nov-17 19:30N 40°43' W 074°02'0 0.1
2017-Nov-17 19:00N 40°43' W 074°02'0 0.2
2017-Nov-17 18:30N 40°43' W 074°02'0 0.2
2017-Nov-17 18:00N 40°43' W 074°02'0 0.1
2017-Nov-17 17:30N 40°43' W 074°02'0 0.3
2017-Nov-17 17:01N 40°43' W 074°02'0 0.3
2017-Nov-17 16:30N 40°43' W 074°02'0 0.3
2017-Nov-17 16:00N 40°43' W 074°02'0 0.2
2017-Nov-17 15:30N 40°43' W 074°02'0 0.1
2017-Nov-17 15:00N 40°43' W 074°02'0 0.0
2017-Nov-17 14:30N 40°43' W 074°02'0 0.0
2017-Nov-17 14:00N 40°43' W 074°02'0 0.1
2017-Nov-17 13:30N 40°43' W 074°02'0 0.2
2017-Nov-17 13:00N 40°43' W 074°02'0 0.2
2017-Nov-17 12:30N 40°43' W 074°02'0 0.0
2017-Nov-17 12:00N 40°43' W 074°02'0 0.1
2017-Nov-17 11:30N 40°43' W 074°02'0 0.0
2017-Nov-17 11:00N 40°43' W 074°02'1 2.6
2017-Nov-17 10:30N 40°44' W 074°02'0 0.0
2017-Nov-17 04:14N 40°44' W 074°02'1 5.9
2017-Nov-17 04:01N 40°43' W 074°01'1 1.3
2017-Nov-17 03:30N 40°43' W 074°02'1 1.3
2017-Nov-17 03:00N 40°43' W 074°01'1 1.3
2017-Nov-17 02:30N 40°43' W 074°02'1 1.2
2017-Nov-17 02:00N 40°43' W 074°01'1 1.3
2017-Nov-17 01:30N 40°43' W 074°02'1 1.3
2017-Nov-17 01:00N 40°43' W 074°01'0 0.1
2017-Nov-17 00:30N 40°43' W 074°01'0 0.1
2017-Nov-17 00:00N 40°43' W 074°01'0 0.0
2017-Nov-16 23:30N 40°43' W 074°01'0 0.1
2017-Nov-16 23:01N 40°43' W 074°01'0 0.2
2017-Nov-16 22:31N 40°43' W 074°01'0 0.0
2017-Nov-16 22:01N 40°43' W 074°01'0 0.0
2017-Nov-16 21:30N 40°43' W 074°01'0 0.0
2017-Nov-16 21:00N 40°43' W 074°01'0 0.0
2017-Nov-16 20:30N 40°43' W 074°01'0 0.0
2017-Nov-16 20:00N 40°43' W 074°01'0 0.1
2017-Nov-16 19:30N 40°43' W 074°01'0 0.1
2017-Nov-16 19:01N 40°43' W 074°01'0 0.0
2017-Nov-16 18:30N 40°43' W 074°01'0 0.0
2017-Nov-16 18:00N 40°43' W 074°01'0 0.0
2017-Nov-16 17:31N 40°43' W 074°01'0 0.1
2017-Nov-16 17:00N 40°43' W 074°01'0 0.1
2017-Nov-16 16:30N 40°43' W 074°01'0 0.0
2017-Nov-16 16:00N 40°43' W 074°01'0 0.1
2017-Nov-16 15:30N 40°43' W 074°01'0 0.1
2017-Nov-16 15:00N 40°43' W 074°01'0 0.1
2017-Nov-16 14:30N 40°43' W 074°01'0 0.0
2017-Nov-16 14:00N 40°43' W 074°01'0 0.0
2017-Nov-16 13:30N 40°43' W 074°01'0 0.0
2017-Nov-16 13:00N 40°43' W 074°01'0 0.0
2017-Nov-16 12:30N 40°43' W 074°01'0 0.0
2017-Nov-16 12:00N 40°43' W 074°01'0 0.0
2017-Nov-16 11:30N 40°43' W 074°01'1 2.6
2017-Nov-16 11:00N 40°44' W 074°02'0 0.0
2017-Nov-16 01:31N 40°44' W 074°02'0 0.0
2017-Nov-16 01:31N 40°44' W 074°02'2 4.5
2017-Nov-16 01:00N 40°46' W 074°01'4 7.1
2017-Nov-16 00:30N 40°43' W 074°02'0 0.1
2017-Nov-16 00:00N 40°43' W 074°02'0 0.2
2017-Nov-15 23:30N 40°43' W 074°02'0 0.0
2017-Nov-15 23:00N 40°43' W 074°02'0 0.1
2017-Nov-15 22:30N 40°43' W 074°02'0 0.0
2017-Nov-15 22:00N 40°43' W 074°02'0 0.1
2017-Nov-15 21:30N 40°43' W 074°02'0 0.2
2017-Nov-15 21:01N 40°43' W 074°02'0 0.1
2017-Nov-15 20:30N 40°43' W 074°02'0 0.0
2017-Nov-15 20:00N 40°43' W 074°02'0 0.1
2017-Nov-15 19:30N 40°43' W 074°02'0 0.2
2017-Nov-15 19:00N 40°43' W 074°02'0 0.1
2017-Nov-15 18:30N 40°43' W 074°02'0 0.0
2017-Nov-15 18:00N 40°43' W 074°02'0 0.1
2017-Nov-15 17:30N 40°43' W 074°02'0 0.0
2017-Nov-15 17:00N 40°43' W 074°02'0 0.2
2017-Nov-15 16:30N 40°43' W 074°02'0 0.1
2017-Nov-15 16:01N 40°43' W 074°02'0 0.3
2017-Nov-15 15:31N 40°43' W 074°02'0 0.2
2017-Nov-15 15:00N 40°43' W 074°02'0 0.2
2017-Nov-15 14:31N 40°43' W 074°02'0 0.3
2017-Nov-15 14:00N 40°43' W 074°02'0 0.1
2017-Nov-15 13:30N 40°43' W 074°02'0 0.2
2017-Nov-15 13:00N 40°43' W 074°02'0 0.1
2017-Nov-15 12:30N 40°43' W 074°02'0 0.1
2017-Nov-15 12:00N 40°43' W 074°02'0 0.2
2017-Nov-15 11:31N 40°43' W 074°02'0 0.1
2017-Nov-15 11:01N 40°43' W 074°02'1 2.6
2017-Nov-15 10:30N 40°44' W 074°02'0 0.0
2017-Nov-15 04:13N 40°44' W 074°02'1 6.4
2017-Nov-15 04:01N 40°43' W 074°01'1 1.3
2017-Nov-15 03:31N 40°43' W 074°02'1 1.3
2017-Nov-15 03:01N 40°43' W 074°01'1 1.1
2017-Nov-15 02:30N 40°43' W 074°02'1 1.1
2017-Nov-15 02:00N 40°43' W 074°01'1 1.0
2017-Nov-15 01:30N 40°43' W 074°02'1 1.1
2017-Nov-15 01:01N 40°43' W 074°01'0 0.1
2017-Nov-15 00:31N 40°43' W 074°01'0 0.1
2017-Nov-15 00:00N 40°43' W 074°01'0 0.1
2017-Nov-14 23:30N 40°43' W 074°01'0 0.0
2017-Nov-14 23:00N 40°43' W 074°01'0 0.0
2017-Nov-14 22:30N 40°43' W 074°01'0 0.1
2017-Nov-14 22:00N 40°43' W 074°01'0 0.1
2017-Nov-14 21:30N 40°43' W 074°01'0 0.0
2017-Nov-14 21:00N 40°43' W 074°01'0 0.0
2017-Nov-14 20:30N 40°43' W 074°01'0 0.1
2017-Nov-14 20:00N 40°43' W 074°01'0 0.1
2017-Nov-14 19:30N 40°43' W 074°01'0 0.0
2017-Nov-14 19:00N 40°43' W 074°01'0 0.0
2017-Nov-14 18:30N 40°43' W 074°01'0 0.0
2017-Nov-14 18:00N 40°43' W 074°01'0 0.0
2017-Nov-14 17:30N 40°43' W 074°01'0 0.0
2017-Nov-14 17:00N 40°43' W 074°01'0 0.0
2017-Nov-14 16:30N 40°43' W 074°01'0 0.0
2017-Nov-14 16:00N 40°43' W 074°01'0 0.0
2017-Nov-14 15:30N 40°43' W 074°01'0 0.0
2017-Nov-14 15:00N 40°43' W 074°01'0 0.0
2017-Nov-14 14:30N 40°43' W 074°01'0 0.0
2017-Nov-14 14:00N 40°43' W 074°01'0 0.0
2017-Nov-14 13:30N 40°43' W 074°01'0 0.1
2017-Nov-14 13:00N 40°43' W 074°01'0 0.1
2017-Nov-14 12:30N 40°43' W 074°01'0 0.0
2017-Nov-14 12:00N 40°43' W 074°01'0 0.1
2017-Nov-14 11:30N 40°43' W 074°01'1 2.6
2017-Nov-14 11:01N 40°44' W 074°02'0 0.0
2017-Nov-14 01:26N 40°44' W 074°02'2 5.2
2017-Nov-14 01:00N 40°46' W 074°01'3 6.9
2017-Nov-14 00:31N 40°43' W 074°01'0 0.3
2017-Nov-14 00:00N 40°43' W 074°01'0 0.0
2017-Nov-13 23:30N 40°43' W 074°01'0 0.0
2017-Nov-13 23:00N 40°43' W 074°01'0 0.0
2017-Nov-13 22:30N 40°43' W 074°01'0 0.0
2017-Nov-13 22:00N 40°43' W 074°01'3 0.2
2017-Nov-13 01:57N 40°46' W 074°01'0 0.0
2017-Nov-11 02:24N 40°46' W 074°01'3 7.6
2017-Nov-11 02:01N 40°43' W 074°01'1 1.3
2017-Nov-11 01:31N 40°43' W 074°02'1 1.2
2017-Nov-11 01:01N 40°43' W 074°01'0 0.0
2017-Nov-11 00:30N 40°43' W 074°01'0 0.1
2017-Nov-11 00:00N 40°43' W 074°01'0 0.0
2017-Nov-10 23:30N 40°43' W 074°01'0 0.0
2017-Nov-10 23:00N 40°43' W 074°01'0 0.0
2017-Nov-10 22:30N 40°43' W 074°01'0 0.1
2017-Nov-10 22:00N 40°43' W 074°01'0 0.1
2017-Nov-10 21:30N 40°43' W 074°01'0 0.1
2017-Nov-10 21:00N 40°43' W 074°01'0 0.1
2017-Nov-10 20:30N 40°43' W 074°01'0 0.0
2017-Nov-10 20:00N 40°43' W 074°01'0 0.0
2017-Nov-10 19:31N 40°43' W 074°01'0 0.1
2017-Nov-10 19:00N 40°43' W 074°01'0 0.1
2017-Nov-10 18:30N 40°43' W 074°01'0 0.1
2017-Nov-10 18:00N 40°43' W 074°01'0 0.1
2017-Nov-10 17:30N 40°43' W 074°01'0 0.0
2017-Nov-10 17:00N 40°43' W 074°01'0 0.0
2017-Nov-10 16:30N 40°43' W 074°01'0 0.0
2017-Nov-10 16:00N 40°43' W 074°01'0 0.0
2017-Nov-10 15:30N 40°43' W 074°01'0 0.1
2017-Nov-10 15:00N 40°43' W 074°01'0 0.1
2017-Nov-10 14:30N 40°43' W 074°01'0 0.1
2017-Nov-10 14:00N 40°43' W 074°01'0 0.0
2017-Nov-10 13:30N 40°43' W 074°01'0 0.0
2017-Nov-10 13:00N 40°43' W 074°01'0 0.1
2017-Nov-10 12:30N 40°43' W 074°01'0 0.1
2017-Nov-10 12:00N 40°43' W 074°01'0 0.1
2017-Nov-10 11:30N 40°43' W 074°01'1 2.6
2017-Nov-10 11:00N 40°44' W 074°02'0 0.0
2017-Nov-10 01:25N 40°44' W 074°02'2 5.3
2017-Nov-10 01:00N 40°46' W 074°01'4 7.1
2017-Nov-10 00:30N 40°43' W 074°02'0 0.5
2017-Nov-10 00:00N 40°43' W 074°02'0 0.1
2017-Nov-09 23:31N 40°43' W 074°02'0 0.2
2017-Nov-09 23:01N 40°43' W 074°02'0 0.4
2017-Nov-09 22:30N 40°43' W 074°02'0 0.1
2017-Nov-09 22:01N 40°43' W 074°02'0 0.1
2017-Nov-09 21:30N 40°43' W 074°02'0 0.1
2017-Nov-09 21:00N 40°43' W 074°02'0 0.2
2017-Nov-09 20:30N 40°43' W 074°02'0 0.2
2017-Nov-09 20:00N 40°43' W 074°02'0 0.0
2017-Nov-09 19:30N 40°43' W 074°02'0 0.0
2017-Nov-09 19:00N 40°43' W 074°02'0 0.1
2017-Nov-09 18:30N 40°43' W 074°02'0 0.1
2017-Nov-09 18:00N 40°43' W 074°02'0 0.0
2017-Nov-09 17:30N 40°43' W 074°02'0 0.1
2017-Nov-09 17:00N 40°43' W 074°02'0 0.1
2017-Nov-09 16:30N 40°43' W 074°02'0 0.0
2017-Nov-09 16:00N 40°43' W 074°02'0 0.0
2017-Nov-09 15:30N 40°43' W 074°02'0 0.1
2017-Nov-09 15:00N 40°43' W 074°02'0 0.0
2017-Nov-09 14:30N 40°43' W 074°02'0 0.0
2017-Nov-09 14:00N 40°43' W 074°02'0 0.1
2017-Nov-09 13:31N 40°43' W 074°02'0 0.1
2017-Nov-09 13:00N 40°43' W 074°02'0 0.1
2017-Nov-09 12:30N 40°43' W 074°02'0 0.0
2017-Nov-09 12:01N 40°43' W 074°02'0 0.2
2017-Nov-09 11:30N 40°43' W 074°02'0 0.2
2017-Nov-09 11:00N 40°43' W 074°02'1 2.6
2017-Nov-09 10:30N 40°44' W 074°02'  

Dump ship's entire track history